Home   Weather   USA   Boston   Past weeks
Flag for USA

Past Weather in Boston, Massachusetts, USA — May 2018

Currently: 68 °F. Broken clouds. (Weather station: Logan International Airport, USA). See more current weather

May 2018 Weather in Boston — Graph

°F

High & Low Weather Summary for May 2018

 TemperatureHumidityPressure
High89 °F (May 2, 3:54 pm)100% (May 6, 11:54 pm)30.44 "Hg (May 6, 11:54 pm)
Low44 °F (May 1, 4:54 am)16% (May 11, 5:54 pm)29.64 "Hg (May 4, 8:54 pm)
Average61 °F73%30.03 "Hg
* Reported May 1 12:54 am — May 31 11:54 pm, Boston. Weather by CustomWeather, © 2022

Note: Actual official high and low records may vary slightly from our data, if they occured in-between our weather recording intervals... More about our weather records

Boston Weather History for May 1, 2018

Scroll right to see more
 ConditionsComfort  
Time TempWeatherWind HumidityBarometerVisibility
12:54 am
Tue, May 1
45 °FPassing clouds.5 mph86%29.95 "Hg10 mi
1:54 am45 °FPassing clouds.5 mph90%29.94 "Hg10 mi
2:54 am45 °FPassing clouds.6 mph90%29.94 "Hg10 mi
3:32 am45 °FPassing clouds.8 mph86%29.96 "Hg10 mi
3:54 am45 °FPassing clouds.6 mph86%29.96 "Hg10 mi
4:54 am44 °FPassing clouds.7 mph93%29.96 "Hg10 mi
5:54 am45 °FScattered clouds.8 mph90%29.99 "Hg10 mi
6:54 am46 °FScattered clouds.7 mph86%30.01 "Hg10 mi
7:54 am47 °FScattered clouds.8 mph83%30.02 "Hg10 mi
8:54 am50 °FPartly sunny.8 mph77%30.02 "Hg10 mi
9:54 am53 °FPassing clouds.9 mph69%30.01 "Hg10 mi
10:54 am56 °FScattered clouds.5 mph60%30.01 "Hg10 mi
11:54 am58 °FScattered clouds.13 mph54%30.01 "Hg10 mi
12:54 pm59 °FPartly sunny.13 mph49%30.01 "Hg10 mi
1:54 pm60 °FPartly sunny.13 mph46%30.00 "Hg10 mi
2:54 pm61 °FPartly sunny.10 mph50%29.99 "Hg10 mi
3:54 pm63 °FScattered clouds.13 mph47%29.98 "Hg10 mi
4:54 pm65 °FScattered clouds.12 mph45%29.99 "Hg10 mi
5:54 pm65 °FScattered clouds.7 mph44%29.98 "Hg10 mi
6:54 pm60 °FBroken clouds.7 mph58%29.99 "Hg10 mi
7:54 pm57 °FMostly cloudy.No wind67%30.00 "Hg10 mi
8:54 pm58 °FMostly cloudy.9 mph67%30.00 "Hg10 mi
9:54 pm59 °FPartly cloudy.9 mph56%30.00 "Hg10 mi
10:54 pm58 °FOvercast.5 mph56%30.00 "Hg10 mi
11:54 pm57 °FPassing clouds.5 mph58%29.99 "Hg10 mi
Weather by CustomWeather, © 2022

See weather overview